Whispering Oaks, Illinois
Current Conditions -  °F | °C
As of 7:22 AM on Saturday 25 Oct 2014 (Local Time) from KPIA Reporting Station
Moderate Fog Moderate Fog  
Wind Chill: 55°   Ceiling: 200
Heat Index: 55°   Visibility: 0.12mi
Dew Point: 53°   Wind: 5mph
Humidity: 93%   Direction: 240°WSW
Pressure: 29.98"   Gusts: NA
Location:  40.5996°N, 89.5548°W
Report Text: KPIA 251222Z 24004KT 1/8SM R13/1400V1600FT FG VV002 13/12 A2998 RMK AO2 T01280117
Loading
Personal Weather Stations






























Interactive Weather Map New forecast layout! Learn more

10-Day Weather Forecast

Advertisements
Track Severe Weather on mobile